PWSweather.com
Personal Weather Stations
Station Observations
BAJUZ
LucenecSK 984 01

LucenecSK 984 01

Lat: 48.335803055476, Lon: 19.645267948508

Elevation: 771

Station Type: Davis

http://meteolc.sk

High Low Average
Temperature 69.6°F20.9°C 63.3°F17.4°C 66.5°F19.2°C
Dew Point 67.6°F19.8°C 61.0°F16.1°C 64.0°F17.8°C
Winds 5.0 mph 8.0 kmh Calm Calm Calm ENECalm ENE
Wind Gusts 13.0 mph20.9 kmh -- 2.0 mph3.2 kmh
Humidity 95% 84% 92%
Pressure 30.05 in1017.6 mb 29.96 in1014.6 mb -
Precipitation 0.26 in6.6 mm - -
Hour Temp Dew Point Humidity Winds Wind Gusts Pressure Precip Precip Rate Daily Precip Total
12:00 AM 64.8°F18.2°C 62.7°F17.1°C 93% Calm Calm -- 29.98 in1015.2 mb 0.00 in0.0 mm 0.00 in0.0 mm 0.00 in0.0 mm
12:15 AM 64.6°F18.1°C 62.5°F16.9°C 93% Calm Calm 3.0 mph4.8 kmh 29.98 in1015.2 mb 0.00 in0.0 mm 0.00 in0.0 mm 0.00 in0.0 mm
12:30 AM 64.2°F17.9°C 62.2°F16.8°C 93% Calm Calm 1.0 mph1.6 kmh 29.99 in1015.6 mb 0.00 in0.0 mm 0.00 in0.0 mm 0.00 in0.0 mm
12:45 AM 64.6°F18.1°C 62.5°F16.9°C 93% Calm Calm -- 29.99 in1015.6 mb 0.00 in0.0 mm 0.00 in0.0 mm 0.00 in0.0 mm
01:00 AM 64.9°F18.3°C 62.9°F17.2°C 93% Calm Calm -- 29.99 in1015.6 mb 0.00 in0.0 mm 0.00 in0.0 mm 0.00 in0.0 mm
01:15 AM 64.9°F18.3°C 62.9°F17.2°C 93% Calm Calm -- 29.99 in1015.6 mb 0.00 in0.0 mm 0.00 in0.0 mm 0.00 in0.0 mm
01:30 AM 64.8°F18.2°C 62.4°F16.9°C 92% Calm Calm -- 29.99 in1015.6 mb 0.00 in0.0 mm 0.00 in0.0 mm 0.00 in0.0 mm
01:45 AM 64.6°F18.1°C 62.2°F16.8°C 92% Calm Calm -- 29.99 in1015.6 mb 0.00 in0.0 mm 0.00 in0.0 mm 0.00 in0.0 mm
02:00 AM 64.2°F17.9°C 61.8°F16.6°C 92% Calm Calm 1.0 mph1.6 kmh 29.99 in1015.6 mb 0.00 in0.0 mm 0.00 in0.0 mm 0.00 in0.0 mm
02:15 AM 64.0°F17.8°C 62.0°F16.7°C 93% 1.0 mph NW1.6 kmh NW 5.0 mph8.0 kmh 29.99 in1015.6 mb 0.00 in0.0 mm 0.00 in0.0 mm 0.00 in0.0 mm
02:30 AM 63.9°F17.7°C 61.8°F16.6°C 93% 1.0 mph 1.6 kmh -- 29.98 in1015.2 mb 0.00 in0.0 mm 0.00 in0.0 mm 0.00 in0.0 mm
02:45 AM 64.0°F17.8°C 62.0°F16.7°C 93% Calm Calm -- 29.98 in1015.2 mb 0.00 in0.0 mm 0.00 in0.0 mm 0.00 in0.0 mm
03:00 AM 63.9°F17.7°C 61.8°F16.6°C 93% Calm Calm -- 29.98 in1015.2 mb 0.00 in0.0 mm 0.00 in0.0 mm 0.00 in0.0 mm
03:15 AM 64.0°F17.8°C 62.0°F16.7°C 93% Calm Calm -- 29.98 in1015.2 mb 0.00 in0.0 mm 0.00 in0.0 mm 0.00 in0.0 mm
03:30 AM 64.0°F17.8°C 62.0°F16.7°C 93% Calm Calm -- 29.98 in1015.2 mb 0.00 in0.0 mm 0.00 in0.0 mm 0.00 in0.0 mm
03:45 AM 63.3°F17.4°C 61.0°F16.1°C 92% Calm Calm -- 29.98 in1015.2 mb 0.00 in0.0 mm 0.00 in0.0 mm 0.00 in0.0 mm
04:00 AM 63.7°F17.6°C 61.6°F16.4°C 93% 1.0 mph NW1.6 kmh NW 3.0 mph4.8 kmh 29.98 in1015.2 mb 0.00 in0.0 mm 0.00 in0.0 mm 0.00 in0.0 mm
04:15 AM 63.3°F17.4°C 61.3°F16.3°C 93% Calm Calm 7.0 mph11.3 kmh 29.97 in1014.9 mb 0.00 in0.0 mm 0.00 in0.0 mm 0.00 in0.0 mm
04:30 AM 63.9°F17.7°C 61.8°F16.6°C 93% 3.0 mph NW4.8 kmh NW 7.0 mph11.3 kmh 29.97 in1014.9 mb 0.00 in0.0 mm 0.00 in0.0 mm 0.00 in0.0 mm
04:45 AM 64.2°F17.9°C 61.8°F16.6°C 92% 1.0 mph NW1.6 kmh NW 2.0 mph3.2 kmh 29.97 in1014.9 mb 0.00 in0.0 mm 0.00 in0.0 mm 0.00 in0.0 mm
05:00 AM 64.2°F17.9°C 61.8°F16.6°C 92% 1.0 mph NW1.6 kmh NW 5.0 mph8.0 kmh 29.96 in1014.6 mb 0.00 in0.0 mm 0.00 in0.0 mm 0.00 in0.0 mm
05:15 AM 64.8°F18.2°C 62.4°F16.9°C 92% Calm Calm -- 29.97 in1014.9 mb 0.00 in0.0 mm 0.00 in0.0 mm 0.00 in0.0 mm
05:30 AM 65.1°F18.4°C 62.1°F16.7°C 90% Calm Calm -- 29.98 in1015.2 mb 0.00 in0.0 mm 0.00 in0.0 mm 0.00 in0.0 mm
05:45 AM 65.1°F18.4°C 62.4°F16.9°C 91% Calm Calm -- 29.98 in1015.2 mb 0.00 in0.0 mm 0.00 in0.0 mm 0.00 in0.0 mm
06:00 AM 64.9°F18.3°C 62.2°F16.8°C 91% Calm Calm -- 29.98 in1015.2 mb 0.00 in0.0 mm 0.00 in0.0 mm 0.00 in0.0 mm
06:15 AM 65.1°F18.4°C 61.8°F16.6°C 89% Calm Calm -- 29.98 in1015.2 mb 0.00 in0.0 mm 0.00 in0.0 mm 0.00 in0.0 mm
06:30 AM 65.7°F18.7°C 62.0°F16.7°C 88% Calm Calm -- 29.98 in1015.2 mb 0.00 in0.0 mm 0.00 in0.0 mm 0.00 in0.0 mm
06:45 AM 66.4°F19.1°C 62.7°F17.1°C 88% Calm Calm -- 29.99 in1015.6 mb 0.00 in0.0 mm 0.00 in0.0 mm 0.00 in0.0 mm
07:00 AM 67.1°F19.5°C 63.4°F17.4°C 88% Calm Calm 1.0 mph1.6 kmh 29.99 in1015.6 mb 0.00 in0.0 mm 0.00 in0.0 mm 0.00 in0.0 mm
07:15 AM 67.1°F19.5°C 63.4°F17.4°C 88% Calm Calm -- 29.99 in1015.6 mb 0.00 in0.0 mm 0.00 in0.0 mm 0.00 in0.0 mm
07:30 AM 67.3°F19.6°C 63.9°F17.7°C 89% Calm Calm -- 29.99 in1015.6 mb 0.00 in0.0 mm 0.00 in0.0 mm 0.00 in0.0 mm
07:45 AM 67.6°F19.8°C 64.3°F17.9°C 89% Calm Calm -- 29.99 in1015.6 mb 0.00 in0.0 mm 0.00 in0.0 mm 0.00 in0.0 mm
08:00 AM 68.0°F20.0°C 64.3°F17.9°C 88% Calm Calm -- 29.99 in1015.6 mb 0.00 in0.0 mm 0.00 in0.0 mm 0.00 in0.0 mm
08:15 AM 68.5°F20.3°C 64.5°F18.1°C 87% Calm Calm -- 29.99 in1015.6 mb 0.00 in0.0 mm 0.00 in0.0 mm 0.00 in0.0 mm
08:30 AM 68.5°F20.3°C 64.2°F17.9°C 86% Calm Calm -- 29.99 in1015.6 mb 0.00 in0.0 mm 0.00 in0.0 mm 0.00 in0.0 mm
08:45 AM 68.7°F20.4°C 64.0°F17.8°C 85% Calm Calm -- 29.99 in1015.6 mb 0.00 in0.0 mm 0.00 in0.0 mm 0.00 in0.0 mm
09:00 AM 68.7°F20.4°C 63.7°F17.6°C 84% Calm Calm -- 29.99 in1015.6 mb 0.00 in0.0 mm 0.00 in0.0 mm 0.00 in0.0 mm
09:15 AM 69.3°F20.7°C 64.2°F17.9°C 84% Calm Calm -- 30.00 in1015.9 mb 0.00 in0.0 mm 0.00 in0.0 mm 0.00 in0.0 mm
09:30 AM 69.6°F20.9°C 64.9°F18.3°C 85% Calm Calm -- 30.00 in1015.9 mb 0.00 in0.0 mm 0.00 in0.0 mm 0.00 in0.0 mm
09:45 AM 69.4°F20.8°C 64.7°F18.2°C 85% Calm Calm -- 30.00 in1015.9 mb 0.00 in0.0 mm 0.00 in0.0 mm 0.00 in0.0 mm
10:00 AM 68.5°F20.3°C 64.2°F17.9°C 86% 1.0 mph SSE1.6 kmh SSE 9.0 mph14.5 kmh 30.00 in1015.9 mb 0.01 in0.3 mm 0.01 in0.3 mm 0.01 in0.3 mm
10:15 AM 68.2°F20.1°C 64.5°F18.1°C 88% 3.0 mph SSE4.8 kmh SSE 8.0 mph12.9 kmh 30.00 in1015.9 mb 0.01 in0.3 mm 0.00 in0.0 mm 0.01 in0.3 mm
10:30 AM 68.7°F20.4°C 65.3°F18.5°C 89% Calm Calm -- 30.00 in1015.9 mb 0.01 in0.3 mm 0.00 in0.0 mm 0.01 in0.3 mm
10:45 AM 69.3°F20.7°C 65.9°F18.8°C 89% Calm Calm -- 30.00 in1015.9 mb 0.01 in0.3 mm 0.00 in0.0 mm 0.01 in0.3 mm
11:00 AM 69.1°F20.6°C 65.4°F18.6°C 88% Calm Calm -- 30.01 in1016.3 mb 0.00 in0.0 mm 0.00 in0.0 mm 0.01 in0.3 mm
11:15 AM 69.1°F20.6°C 65.7°F18.7°C 89% Calm Calm -- 30.00 in1015.9 mb 0.02 in0.5 mm 0.08 in2.0 mm 0.02 in0.5 mm
11:30 AM 69.3°F20.7°C 65.9°F18.8°C 89% Calm Calm -- 30.01 in1016.3 mb 0.02 in0.5 mm 0.00 in0.0 mm 0.03 in0.8 mm
11:45 AM 69.1°F20.6°C 66.0°F18.9°C 90% Calm Calm 1.0 mph1.6 kmh 30.01 in1016.3 mb 0.02 in0.5 mm 0.00 in0.0 mm 0.03 in0.8 mm
12:00 PM 69.1°F20.6°C 66.3°F19.1°C 91% Calm Calm 3.0 mph4.8 kmh 30.01 in1016.3 mb 0.02 in0.5 mm 0.00 in0.0 mm 0.03 in0.8 mm
12:15 PM 68.7°F20.4°C 66.0°F18.9°C 91% Calm Calm -- 30.00 in1015.9 mb 0.01 in0.3 mm 0.00 in0.0 mm 0.03 in0.8 mm
12:30 PM 68.5°F20.3°C 65.5°F18.6°C 90% Calm Calm -- 30.01 in1016.3 mb 0.01 in0.3 mm 0.00 in0.0 mm 0.04 in1.0 mm
12:45 PM 68.5°F20.3°C 65.8°F18.8°C 91% Calm Calm 1.0 mph1.6 kmh 30.01 in1016.3 mb 0.05 in1.3 mm 0.16 in4.1 mm 0.08 in2.0 mm
01:00 PM 68.4°F20.2°C 65.6°F18.7°C 91% 1.0 mph SSE1.6 kmh SSE 6.0 mph9.7 kmh 30.00 in1015.9 mb 0.06 in1.5 mm 0.01 in0.3 mm 0.09 in2.3 mm
01:15 PM 68.2°F20.1°C 65.5°F18.6°C 91% Calm Calm -- 29.99 in1015.6 mb 0.07 in1.8 mm 0.04 in1.0 mm 0.10 in2.5 mm
01:30 PM 68.7°F20.4°C 66.6°F19.2°C 93% Calm Calm -- 29.99 in1015.6 mb 0.06 in1.5 mm 0.00 in0.0 mm 0.10 in2.5 mm
01:45 PM 68.7°F20.4°C 66.0°F18.9°C 91% Calm Calm -- 30.00 in1015.9 mb 0.02 in0.5 mm 0.00 in0.0 mm 0.10 in2.5 mm
02:00 PM 69.3°F20.7°C 66.8°F19.3°C 92% Calm Calm -- 30.00 in1015.9 mb 0.02 in0.5 mm 0.00 in0.0 mm 0.11 in2.8 mm
02:15 PM 69.4°F20.8°C 66.7°F19.3°C 91% Calm Calm -- 30.00 in1015.9 mb 0.01 in0.3 mm 0.00 in0.0 mm 0.11 in2.8 mm
02:30 PM 69.3°F20.7°C 66.5°F19.2°C 91% Calm Calm -- 29.99 in1015.6 mb 0.01 in0.3 mm 0.00 in0.0 mm 0.11 in2.8 mm
02:45 PM 69.3°F20.7°C 66.8°F19.3°C 92% Calm Calm -- 29.99 in1015.6 mb 0.01 in0.3 mm 0.00 in0.0 mm 0.11 in2.8 mm
03:00 PM 69.4°F20.8°C 67.3°F19.6°C 93% Calm Calm -- 29.98 in1015.2 mb 0.00 in0.0 mm 0.00 in0.0 mm 0.11 in2.8 mm
03:15 PM 69.4°F20.8°C 67.0°F19.4°C 92% Calm Calm -- 29.99 in1015.6 mb 0.01 in0.3 mm 0.04 in1.0 mm 0.12 in3.0 mm
03:30 PM 69.4°F20.8°C 67.0°F19.4°C 92% Calm Calm -- 29.99 in1015.6 mb 0.02 in0.5 mm 0.04 in1.0 mm 0.13 in3.3 mm
03:45 PM 69.4°F20.8°C 67.3°F19.6°C 93% Calm Calm -- 29.99 in1015.6 mb 0.02 in0.5 mm 0.00 in0.0 mm 0.13 in3.3 mm
04:00 PM 69.4°F20.8°C 67.3°F19.6°C 93% Calm Calm -- 29.98 in1015.2 mb 0.03 in0.8 mm 0.01 in0.3 mm 0.14 in3.6 mm
04:15 PM 69.4°F20.8°C 67.6°F19.8°C 94% Calm Calm -- 29.99 in1015.6 mb 0.03 in0.8 mm 0.00 in0.0 mm 0.15 in3.8 mm
04:30 PM 69.4°F20.8°C 67.6°F19.8°C 94% Calm Calm 1.0 mph1.6 kmh 29.99 in1015.6 mb 0.02 in0.5 mm 0.00 in0.0 mm 0.15 in3.8 mm
04:45 PM 69.3°F20.7°C 67.5°F19.7°C 94% Calm Calm 8.0 mph12.9 kmh 30.00 in1015.9 mb 0.02 in0.5 mm 0.00 in0.0 mm 0.16 in4.1 mm
05:00 PM 68.7°F20.4°C 66.9°F19.4°C 94% 1.0 mph E1.6 kmh E 8.0 mph12.9 kmh 30.00 in1015.9 mb 0.02 in0.5 mm 0.00 in0.0 mm 0.17 in4.3 mm
05:15 PM 68.2°F20.1°C 66.1°F18.9°C 93% 3.0 mph E4.8 kmh E 8.0 mph12.9 kmh 29.99 in1015.6 mb 0.03 in0.8 mm 0.04 in1.0 mm 0.18 in4.6 mm
05:30 PM 67.8°F19.9°C 65.7°F18.7°C 93% 1.0 mph E1.6 kmh E 5.0 mph8.0 kmh 29.99 in1015.6 mb 0.04 in1.0 mm 0.04 in1.0 mm 0.19 in4.8 mm
05:45 PM 67.6°F19.8°C 65.5°F18.6°C 93% Calm Calm 1.0 mph1.6 kmh 29.99 in1015.6 mb 0.05 in1.3 mm 0.04 in1.0 mm 0.20 in5.1 mm
06:00 PM 67.5°F19.7°C 65.7°F18.7°C 94% 1.0 mph E1.6 kmh E 7.0 mph11.3 kmh 29.99 in1015.6 mb 0.06 in1.5 mm 0.01 in0.3 mm 0.23 in5.8 mm
06:15 PM 67.3°F19.6°C 65.2°F18.4°C 93% 1.0 mph E1.6 kmh E 10.0 mph16.1 kmh 30.00 in1015.9 mb 0.06 in1.5 mm 0.00 in0.0 mm 0.24 in6.1 mm
06:30 PM 66.9°F19.4°C 64.8°F18.2°C 93% 5.0 mph E8.0 kmh E 13.0 mph20.9 kmh 30.00 in1015.9 mb 0.06 in1.5 mm 0.00 in0.0 mm 0.24 in6.1 mm
06:45 PM 66.7°F19.3°C 64.7°F18.2°C 93% 2.0 mph E3.2 kmh E 11.0 mph17.7 kmh 30.00 in1015.9 mb 0.05 in1.3 mm 0.00 in0.0 mm 0.25 in6.4 mm
07:00 PM 65.8°F18.8°C 63.5°F17.5°C 92% 4.0 mph E6.4 kmh E 9.0 mph14.5 kmh 30.00 in1015.9 mb 0.02 in0.5 mm 0.00 in0.0 mm 0.25 in6.4 mm
07:15 PM 64.9°F18.3°C 62.6°F17.0°C 92% 5.0 mph E8.0 kmh E 13.0 mph20.9 kmh 30.01 in1016.3 mb 0.02 in0.5 mm 0.00 in0.0 mm 0.26 in6.6 mm
07:30 PM 64.6°F18.1°C 62.2°F16.8°C 92% 1.0 mph E1.6 kmh E 7.0 mph11.3 kmh 30.01 in1016.3 mb 0.02 in0.5 mm 0.00 in0.0 mm 0.26 in6.6 mm
07:45 PM 64.6°F18.1°C 62.5°F16.9°C 93% Calm Calm -- 30.02 in1016.6 mb 0.01 in0.3 mm 0.00 in0.0 mm 0.26 in6.6 mm
08:00 PM 64.6°F18.1°C 62.5°F16.9°C 93% Calm Calm -- 30.02 in1016.6 mb 0.00 in0.0 mm 0.00 in0.0 mm 0.26 in6.6 mm
08:15 PM 64.6°F18.1°C 62.5°F16.9°C 93% Calm Calm -- 30.02 in1016.6 mb 0.00 in0.0 mm 0.00 in0.0 mm 0.26 in6.6 mm
08:30 PM 64.4°F18.0°C 62.3°F16.8°C 93% Calm Calm -- 30.03 in1016.9 mb 0.00 in0.0 mm 0.00 in0.0 mm 0.26 in6.6 mm
08:45 PM 64.4°F18.0°C 62.6°F17.0°C 94% Calm Calm -- 30.04 in1017.3 mb 0.00 in0.0 mm 0.00 in0.0 mm 0.26 in6.6 mm
09:00 PM 64.4°F18.0°C 62.6°F17.0°C 94% Calm Calm -- 30.04 in1017.3 mb 0.00 in0.0 mm 0.00 in0.0 mm 0.26 in6.6 mm
09:15 PM 64.4°F18.0°C 62.6°F17.0°C 94% Calm Calm -- 30.04 in1017.3 mb 0.00 in0.0 mm 0.00 in0.0 mm 0.26 in6.6 mm
09:30 PM 64.2°F17.9°C 62.5°F16.9°C 94% Calm Calm -- 30.04 in1017.3 mb 0.00 in0.0 mm 0.00 in0.0 mm 0.26 in6.6 mm
09:45 PM 64.2°F17.9°C 62.8°F17.1°C 95% Calm Calm 1.0 mph1.6 kmh 30.03 in1016.9 mb 0.00 in0.0 mm 0.00 in0.0 mm 0.26 in6.6 mm
10:00 PM 64.2°F17.9°C 62.8°F17.1°C 95% Calm Calm -- 30.03 in1016.9 mb 0.00 in0.0 mm 0.00 in0.0 mm 0.26 in6.6 mm
10:15 PM 64.2°F17.9°C 62.8°F17.1°C 95% 2.0 mph WNW3.2 kmh WNW 8.0 mph12.9 kmh 30.02 in1016.6 mb 0.00 in0.0 mm 0.00 in0.0 mm 0.26 in6.6 mm
10:30 PM 64.2°F17.9°C 62.8°F17.1°C 95% Calm Calm 1.0 mph1.6 kmh 30.03 in1016.9 mb 0.00 in0.0 mm 0.00 in0.0 mm 0.26 in6.6 mm
10:45 PM 64.0°F17.8°C 62.6°F17.0°C 95% Calm Calm -- 30.03 in1016.9 mb 0.00 in0.0 mm 0.00 in0.0 mm 0.26 in6.6 mm
11:00 PM 64.0°F17.8°C 62.6°F17.0°C 95% Calm Calm -- 30.04 in1017.3 mb 0.00 in0.0 mm 0.00 in0.0 mm 0.16 in4.1 mm
11:15 PM 64.0°F17.8°C 62.6°F17.0°C 95% Calm Calm -- 30.04 in1017.3 mb 0.00 in0.0 mm 0.00 in0.0 mm 0.16 in4.1 mm
11:30 PM 63.7°F17.6°C 62.2°F16.8°C 95% Calm Calm -- 30.04 in1017.3 mb 0.00 in0.0 mm 0.00 in0.0 mm 0.16 in4.1 mm
11:45 PM 63.7°F17.6°C 62.2°F16.8°C 95% Calm Calm -- 30.05 in1017.6 mb 0.00 in0.0 mm 0.00 in0.0 mm 0.16 in4.1 mm